createdAt,value
2016-11-14T00:00:47.341Z,1026.52
2016-11-14T00:01:56.119Z,1026.46
2016-11-14T00:03:05.117Z,1026.43
2016-11-14T00:04:14.108Z,1026.44
2016-11-14T00:05:23.426Z,1026.42
2016-11-14T00:06:32.973Z,1026.39
2016-11-14T00:07:41.676Z,1026.44
2016-11-14T00:08:50.679Z,1026.47
2016-11-14T00:10:00.386Z,1026.49
2016-11-14T00:11:09.742Z,1026.48
2016-11-14T00:12:18.910Z,1026.5
2016-11-14T00:13:28.217Z,1026.53
2016-11-14T00:14:36.907Z,1026.5
2016-11-14T00:15:46.208Z,1026.57
2016-11-14T00:16:55.205Z,1026.54
2016-11-14T00:18:04.346Z,1026.5
2016-11-14T00:19:13.367Z,1026.46
2016-11-14T00:20:22.128Z,1026.49
2016-11-14T00:21:31.129Z,1026.52
2016-11-14T00:22:40.130Z,1026.54
2016-11-14T00:23:49.583Z,1026.56
2016-11-14T00:24:58.782Z,1026.56
2016-11-14T00:26:07.773Z,1026.6
2016-11-14T00:27:17.076Z,1026.63
2016-11-14T00:28:25.776Z,1026.63
2016-11-14T00:29:35.122Z,1026.64
2016-11-14T00:30:44.116Z,1026.66
2016-11-14T00:31:52.793Z,1026.7
2016-11-14T00:33:01.785Z,1026.73
2016-11-14T00:34:10.791Z,1026.85
2016-11-14T00:35:19.632Z,1026.9
2016-11-14T00:36:28.313Z,1026.92
2016-11-14T00:37:37.602Z,1026.95
2016-11-14T00:38:46.281Z,1026.91
2016-11-14T00:39:55.277Z,1026.9
2016-11-14T00:41:05.190Z,1026.92
2016-11-14T00:42:14.503Z,1026.96
2016-11-14T00:43:23.498Z,1026.97
2016-11-14T00:44:32.324Z,1026.98
2016-11-14T00:45:41.744Z,1027.01
2016-11-14T00:46:50.731Z,1027.04
2016-11-14T00:47:59.451Z,1027.01
2016-11-14T00:49:08.544Z,1026.98
2016-11-14T00:50:17.543Z,1026.98
2016-11-14T00:51:26.231Z,1027.01
2016-11-14T00:52:35.538Z,1026.95
2016-11-14T00:53:44.225Z,1026.92
2016-11-14T00:54:53.024Z,1026.88
2016-11-14T00:56:02.326Z,1026.84
2016-11-14T00:57:11.341Z,1026.81
2016-11-14T00:58:20.358Z,1026.81
2016-11-14T00:59:29.992Z,1026.82
2016-11-14T01:00:39.339Z,1026.84
2016-11-14T01:01:48.128Z,1026.83
2016-11-14T01:02:57.431Z,1026.81
2016-11-14T01:04:06.433Z,1026.78
2016-11-14T01:05:15.781Z,1026.71
2016-11-14T01:06:24.790Z,1026.69
2016-11-14T01:07:33.472Z,1026.66
2016-11-14T01:08:42.687Z,1026.7
2016-11-14T01:09:51.377Z,1026.68
2016-11-14T01:11:01.046Z,1026.63
2016-11-14T01:12:10.045Z,1026.63
2016-11-14T01:13:19.077Z,1026.62
2016-11-14T01:14:27.856Z,1026.58
2016-11-14T01:15:37.147Z,1026.59
2016-11-14T01:16:46.147Z,1026.61
2016-11-14T01:17:55.138Z,1026.64
2016-11-14T01:19:04.443Z,1026.67
2016-11-14T01:20:13.869Z,1026.7
2016-11-14T01:21:23.518Z,1026.69
2016-11-14T01:22:32.821Z,1026.72
2016-11-14T01:23:42.154Z,1026.72
2016-11-14T01:24:51.144Z,1026.74
2016-11-14T01:26:00.445Z,1026.79
2016-11-14T01:27:09.456Z,1026.8
2016-11-14T01:28:18.470Z,1026.83
2016-11-14T01:29:27.151Z,1026.84
2016-11-14T01:30:36.458Z,1026.84
2016-11-14T01:31:45.787Z,1026.84
2016-11-14T01:32:55.095Z,1026.8
2016-11-14T01:34:04.405Z,1026.84
2016-11-14T01:35:14.038Z,1026.82
2016-11-14T01:36:22.724Z,1026.82
2016-11-14T01:37:32.026Z,1026.82
2016-11-14T01:38:41.327Z,1026.8
2016-11-14T01:39:50.017Z,1026.84
2016-11-14T01:40:59.623Z,1026.82
2016-11-14T01:42:08.921Z,1026.81
2016-11-14T01:43:18.218Z,1026.79
2016-11-14T01:44:27.513Z,1026.78
2016-11-14T01:45:36.484Z,1026.78
2016-11-14T01:46:46.590Z,1026.76
2016-11-14T01:47:55.273Z,1026.76
2016-11-14T01:49:03.959Z,1026.8
2016-11-14T01:50:13.567Z,1026.82
2016-11-14T01:51:22.250Z,1026.83
2016-11-14T01:52:30.931Z,1026.83
2016-11-14T01:53:40.228Z,1026.82
2016-11-14T01:54:49.225Z,1026.83
2016-11-14T01:55:58.521Z,1026.86
2016-11-14T01:57:07.245Z,1026.83
2016-11-14T01:58:16.567Z,1026.83
2016-11-14T01:59:25.865Z,1026.85
2016-11-14T02:00:34.857Z,1026.83
2016-11-14T02:01:43.568Z,1026.84
2016-11-14T02:02:52.561Z,1026.84
2016-11-14T02:04:01.552Z,1026.88
2016-11-14T02:05:10.557Z,1026.9
2016-11-14T02:06:19.243Z,1026.89
2016-11-14T02:07:27.928Z,1026.9
2016-11-14T02:08:36.918Z,1026.91
2016-11-14T02:09:45.598Z,1026.92
2016-11-14T02:10:54.910Z,1026.91
2016-11-14T02:12:04.215Z,1026.98
2016-11-14T02:13:13.203Z,1026.94
2016-11-14T02:14:21.890Z,1026.91
2016-11-14T02:15:30.886Z,1026.93
2016-11-14T02:16:39.879Z,1026.91
2016-11-14T02:17:48.871Z,1026.97
2016-11-14T02:18:58.020Z,1026.94
2016-11-14T02:20:06.700Z,1026.94
2016-11-14T02:21:16.616Z,1026.96
2016-11-14T02:22:26.230Z,1026.95
2016-11-14T02:23:35.225Z,1026.9
2016-11-14T02:24:44.526Z,1026.93
2016-11-14T02:25:53.926Z,1026.94
2016-11-14T02:27:02.913Z,1026.92
2016-11-14T02:28:11.898Z,1026.89
2016-11-14T02:29:21.217Z,1026.86
2016-11-14T02:30:30.213Z,1026.85
2016-11-14T02:31:39.200Z,1026.88
2016-11-14T02:32:48.502Z,1026.88
2016-11-14T02:33:57.200Z,1026.88
2016-11-14T02:35:05.898Z,1026.91
2016-11-14T02:36:15.184Z,1026.93
2016-11-14T02:37:23.902Z,1026.94
2016-11-14T02:38:33.508Z,1026.91
2016-11-14T02:39:42.500Z,1026.9
2016-11-14T02:40:51.233Z,1026.86
2016-11-14T02:42:00.068Z,1026.86
2016-11-14T02:43:08.754Z,1026.79
2016-11-14T02:44:17.811Z,1026.87
2016-11-14T02:45:27.104Z,1026.9
2016-11-14T02:46:35.779Z,1026.93
2016-11-14T02:47:45.076Z,1026.9
2016-11-14T02:48:54.068Z,1026.9
2016-11-14T02:50:03.359Z,1026.89
2016-11-14T02:51:12.364Z,1026.9
2016-11-14T02:52:21.687Z,1026.92
2016-11-14T02:53:30.407Z,1026.95
2016-11-14T02:54:39.441Z,1026.92
2016-11-14T02:55:48.741Z,1026.96
2016-11-14T02:56:57.737Z,1027.04
2016-11-14T02:58:07.033Z,1027.09
2016-11-14T02:59:16.025Z,1027.13
2016-11-14T03:00:25.008Z,1027.12
2016-11-14T03:01:34.314Z,1027.15
2016-11-14T03:02:43.330Z,1027.15
2016-11-14T03:03:52.325Z,1027.15
2016-11-14T03:05:01.961Z,1027.14
2016-11-14T03:06:10.647Z,1027.15
2016-11-14T03:07:19.640Z,1027.08
2016-11-14T03:08:28.624Z,1027.08
2016-11-14T03:09:37.613Z,1027.09
2016-11-14T03:10:46.307Z,1027.13
2016-11-14T03:11:55.604Z,1027.1
2016-11-14T03:13:04.295Z,1027.09
2016-11-14T03:14:13.297Z,1027.05
2016-11-14T03:15:22.302Z,1027.03
2016-11-14T03:16:31.297Z,1027.06
2016-11-14T03:17:39.992Z,1027.1
2016-11-14T03:18:48.981Z,1027.14
2016-11-14T03:19:57.674Z,1027.14
2016-11-14T03:21:06.361Z,1027.11
2016-11-14T03:22:15.056Z,1027.17
2016-11-14T03:23:24.061Z,1027.14
2016-11-14T03:24:33.360Z,1027.15
2016-11-14T03:25:42.358Z,1027.18
2016-11-14T03:26:51.658Z,1027.17
2016-11-14T03:28:00.653Z,1027.15
2016-11-14T03:29:09.682Z,1027.14
2016-11-14T03:30:18.780Z,1027.16
2016-11-14T03:31:27.468Z,1027.14
2016-11-14T03:32:36.499Z,1027.18
2016-11-14T03:33:46.457Z,1027.22
2016-11-14T03:34:55.147Z,1027.21
2016-11-14T03:36:04.450Z,1027.2
2016-11-14T03:37:13.178Z,1027.24
2016-11-14T03:38:22.175Z,1027.28
2016-11-14T03:39:31.015Z,1027.26
2016-11-14T03:40:40.008Z,1027.31
2016-11-14T03:41:49.314Z,1027.32
2016-11-14T03:42:58.297Z,1027.27
2016-11-14T03:44:07.299Z,1027.26
2016-11-14T03:45:16.297Z,1027.3
2016-11-14T03:46:25.324Z,1027.29
2016-11-14T03:47:34.325Z,1027.34
2016-11-14T03:48:43.935Z,1027.33
2016-11-14T03:49:52.919Z,1027.34
2016-11-14T03:51:01.909Z,1027.33
2016-11-14T03:52:10.596Z,1027.36
2016-11-14T03:53:19.583Z,1027.41
2016-11-14T03:54:28.352Z,1027.39
2016-11-14T03:55:37.668Z,1027.44
2016-11-14T03:56:46.977Z,1027.43
2016-11-14T03:57:56.007Z,1027.44
2016-11-14T03:59:04.700Z,1027.46
2016-11-14T04:00:14.002Z,1027.4
2016-11-14T04:01:22.997Z,1027.41
2016-11-14T04:02:32.591Z,1027.42
2016-11-14T04:03:41.611Z,1027.41
2016-11-14T04:04:50.308Z,1027.36
2016-11-14T04:05:59.299Z,1027.38
2016-11-14T04:07:08.599Z,1027.35
2016-11-14T04:08:18.077Z,1027.33
2016-11-14T04:09:27.088Z,1027.29
2016-11-14T04:10:36.700Z,1027.35
2016-11-14T04:11:45.387Z,1027.39
2016-11-14T04:12:54.080Z,1027.38
2016-11-14T04:14:03.069Z,1027.41
2016-11-14T04:15:12.072Z,1027.43
2016-11-14T04:16:21.362Z,1027.42
2016-11-14T04:17:30.362Z,1027.38
2016-11-14T04:18:39.693Z,1027.4
2016-11-14T04:19:48.381Z,1027.41
2016-11-14T04:20:57.377Z,1027.41
2016-11-14T04:22:06.085Z,1027.42
2016-11-14T04:23:15.387Z,1027.47
2016-11-14T04:24:24.096Z,1027.48
2016-11-14T04:25:33.391Z,1027.51
2016-11-14T04:26:42.379Z,1027.53
2016-11-14T04:27:51.374Z,1027.49
2016-11-14T04:29:00.118Z,1027.5
2016-11-14T04:30:08.801Z,1027.51
2016-11-14T04:31:17.784Z,1027.54
2016-11-14T04:32:26.783Z,1027.56
2016-11-14T04:33:36.118Z,1027.53
2016-11-14T04:34:45.320Z,1027.56
2016-11-14T04:35:54.306Z,1027.52
2016-11-14T04:37:03.763Z,1027.54
2016-11-14T04:38:13.360Z,1027.5
2016-11-14T04:39:22.677Z,1027.48
2016-11-14T04:40:31.350Z,1027.47
2016-11-14T04:41:40.354Z,1027.46
2016-11-14T04:42:49.367Z,1027.53
2016-11-14T04:43:58.352Z,1027.52
2016-11-14T04:45:07.649Z,1027.53
2016-11-14T04:46:16.953Z,1027.54
2016-11-14T04:47:25.943Z,1027.55
2016-11-14T04:48:35.094Z,1027.53
2016-11-14T04:49:43.781Z,1027.5
2016-11-14T04:50:52.763Z,1027.5
2016-11-14T04:52:01.756Z,1027.5
2016-11-14T04:53:10.447Z,1027.52
2016-11-14T04:54:19.310Z,1027.55
2016-11-14T04:55:28.304Z,1027.59
2016-11-14T04:56:37.299Z,1027.56
2016-11-14T04:57:46.301Z,1027.63
2016-11-14T04:58:55.293Z,1027.58
2016-11-14T05:00:04.350Z,1027.58
2016-11-14T05:01:13.996Z,1027.64
2016-11-14T05:02:22.680Z,1027.62
2016-11-14T05:03:31.703Z,1027.64
2016-11-14T05:04:41.007Z,1027.6
2016-11-14T05:05:50.038Z,1027.57
2016-11-14T05:06:59.018Z,1027.55
2016-11-14T05:08:08.007Z,1027.54
2016-11-14T05:09:17.011Z,1027.61
2016-11-14T05:10:26.016Z,1027.61
2016-11-14T05:11:34.861Z,1027.6
2016-11-14T05:12:44.483Z,1027.61
2016-11-14T05:13:53.504Z,1027.59
2016-11-14T05:15:02.502Z,1027.64
2016-11-14T05:16:11.566Z,1027.63
2016-11-14T05:17:20.585Z,1027.67
2016-11-14T05:18:29.653Z,1027.7
2016-11-14T05:19:38.665Z,1027.67
2016-11-14T05:20:48.318Z,1027.71
2016-11-14T05:21:57.649Z,1027.71
2016-11-14T05:23:06.962Z,1027.73
2016-11-14T05:24:15.999Z,1027.71
2016-11-14T05:25:24.992Z,1027.71
2016-11-14T05:26:33.991Z,1027.68
2016-11-14T05:27:43.290Z,1027.67
2016-11-14T05:28:52.642Z,1027.7
2016-11-14T05:30:01.968Z,1027.67
2016-11-14T05:31:11.275Z,1027.72
2016-11-14T05:32:20.604Z,1027.75
2016-11-14T05:33:29.616Z,1027.71
2016-11-14T05:34:38.460Z,1027.73
2016-11-14T05:35:47.459Z,1027.7
2016-11-14T05:36:56.187Z,1027.68
2016-11-14T05:38:05.178Z,1027.66
2016-11-14T05:39:14.195Z,1027.66
2016-11-14T05:40:23.243Z,1027.67
2016-11-14T05:41:32.250Z,1027.72
2016-11-14T05:42:41.556Z,1027.77
2016-11-14T05:43:50.270Z,1027.76
2016-11-14T05:44:59.597Z,1027.71
2016-11-14T05:46:09.231Z,1027.72
2016-11-14T05:47:18.553Z,1027.71
2016-11-14T05:48:27.550Z,1027.7
2016-11-14T05:49:37.161Z,1027.71
2016-11-14T05:50:46.467Z,1027.69
2016-11-14T05:51:55.171Z,1027.73
2016-11-14T05:53:04.521Z,1027.71
2016-11-14T05:54:13.818Z,1027.71
2016-11-14T05:55:22.828Z,1027.75
2016-11-14T05:56:32.128Z,1027.72
2016-11-14T05:57:41.586Z,1027.73
2016-11-14T05:58:50.270Z,1027.74
2016-11-14T05:59:59.271Z,1027.7
2016-11-14T06:01:08.568Z,1027.73
2016-11-14T06:02:17.570Z,1027.71
2016-11-14T06:03:26.408Z,1027.71
2016-11-14T06:04:35.705Z,1027.69
2016-11-14T06:05:44.709Z,1027.77
2016-11-14T06:06:53.718Z,1027.79
2016-11-14T06:08:02.707Z,1027.75
2016-11-14T06:09:11.560Z,1027.73
2016-11-14T06:10:20.880Z,1027.72
2016-11-14T06:11:30.180Z,1027.72
2016-11-14T06:12:38.953Z,1027.71
2016-11-14T06:13:47.992Z,1027.73
2016-11-14T06:14:56.719Z,1027.71
2016-11-14T06:16:05.441Z,1027.72
2016-11-14T06:17:14.147Z,1027.75
2016-11-14T06:18:23.139Z,1027.81
2016-11-14T06:19:32.668Z,1027.83
2016-11-14T06:20:41.666Z,1027.85
2016-11-14T06:21:50.347Z,1027.88
2016-11-14T06:22:59.851Z,1027.91
2016-11-14T06:24:08.665Z,1027.88
2016-11-14T06:25:17.355Z,1027.97
2016-11-14T06:26:26.350Z,1027.93
2016-11-14T06:27:35.093Z,1027.99
2016-11-14T06:28:43.791Z,1027.95
2016-11-14T06:29:52.788Z,1027.98
2016-11-14T06:31:02.284Z,1028.03
2016-11-14T06:32:11.637Z,1028.03
2016-11-14T06:33:21.318Z,1028.07
2016-11-14T06:34:30.618Z,1028.09
2016-11-14T06:35:39.958Z,1028.07
2016-11-14T06:36:48.653Z,1028.03
2016-11-14T06:37:58.115Z,1028.08
2016-11-14T06:39:07.130Z,1028.08
2016-11-14T06:40:16.439Z,1028.08
2016-11-14T06:41:25.550Z,1028.14
2016-11-14T06:42:35.645Z,1028.17
2016-11-14T06:43:44.646Z,1028.21
2016-11-14T06:44:54.046Z,1028.29
2016-11-14T06:46:03.486Z,1028.3
2016-11-14T06:47:12.527Z,1028.36
2016-11-14T06:48:22.364Z,1028.4
2016-11-14T06:49:31.507Z,1028.37
2016-11-14T06:50:40.401Z,1028.39
2016-11-14T06:51:49.410Z,1028.37
2016-11-14T06:52:59.091Z,1028.38
2016-11-14T06:54:09.223Z,1028.37
2016-11-14T06:55:20.844Z,1028.41
2016-11-14T06:56:29.846Z,1028.42
2016-11-14T06:57:38.524Z,1028.44
2016-11-14T06:58:47.534Z,1028.46
2016-11-14T06:59:56.242Z,1028.46
2016-11-14T07:01:05.854Z,1028.44
2016-11-14T07:02:14.841Z,1028.45
2016-11-14T07:03:23.848Z,1028.43
2016-11-14T07:04:32.851Z,1028.45
2016-11-14T07:05:41.847Z,1028.5
2016-11-14T07:06:51.458Z,1028.49
2016-11-14T07:08:00.877Z,1028.53
2016-11-14T07:09:09.896Z,1028.5
2016-11-14T07:10:19.215Z,1028.53
2016-11-14T07:11:27.928Z,1028.54
2016-11-14T07:12:36.934Z,1028.61
2016-11-14T07:13:46.238Z,1028.64
2016-11-14T07:14:56.252Z,1028.64
2016-11-14T07:16:05.578Z,1028.63
2016-11-14T07:17:15.149Z,1028.63
2016-11-14T07:18:24.164Z,1028.64
2016-11-14T07:19:32.846Z,1028.64
2016-11-14T07:20:41.855Z,1028.64
2016-11-14T07:21:50.569Z,1028.69
2016-11-14T07:22:59.556Z,1028.71
2016-11-14T07:24:08.868Z,1028.73
2016-11-14T07:25:17.928Z,1028.77
2016-11-14T07:26:27.234Z,1028.76
2016-11-14T07:27:35.941Z,1028.79
2016-11-14T07:28:45.265Z,1028.83
2016-11-14T07:29:54.563Z,1028.83
2016-11-14T07:31:03.617Z,1028.86
2016-11-14T07:32:12.681Z,1028.86
2016-11-14T07:33:21.412Z,1028.86
2016-11-14T07:34:30.742Z,1028.84
2016-11-14T07:35:39.786Z,1028.91
2016-11-14T07:36:48.800Z,1028.98
2016-11-14T07:37:57.510Z,1028.97
2016-11-14T07:39:07.111Z,1028.97
2016-11-14T07:40:16.105Z,1028.99
2016-11-14T07:41:24.943Z,1028.98
2016-11-14T07:42:33.959Z,1029
2016-11-14T07:43:43.264Z,1029.01
2016-11-14T07:44:51.968Z,1029.01
2016-11-14T07:46:00.664Z,1029.06
2016-11-14T07:47:09.969Z,1029.05
2016-11-14T07:48:19.944Z,1029.04
2016-11-14T07:49:28.667Z,1029.15
2016-11-14T07:50:37.978Z,1029.15
2016-11-14T07:51:46.987Z,1029.16
2016-11-14T07:52:56.090Z,1029.13
2016-11-14T07:54:04.819Z,1029.17
2016-11-14T07:55:13.813Z,1029.18
2016-11-14T07:56:23.176Z,1029.16
2016-11-14T07:57:31.891Z,1029.2
2016-11-14T07:58:41.185Z,1029.22
2016-11-14T07:59:49.889Z,1029.23
2016-11-14T08:00:59.180Z,1029.24
2016-11-14T08:02:08.191Z,1029.23
2016-11-14T08:03:17.495Z,1029.24
2016-11-14T08:04:26.485Z,1029.21
2016-11-14T08:05:35.194Z,1029.22
2016-11-14T08:06:44.815Z,1029.18
2016-11-14T08:07:53.518Z,1029.23
2016-11-14T08:09:02.846Z,1029.27
2016-11-14T08:10:12.142Z,1029.24
2016-11-14T08:11:21.137Z,1029.24
2016-11-14T08:12:29.829Z,1029.24
2016-11-14T08:13:39.458Z,1029.22
2016-11-14T08:14:48.491Z,1029.21
2016-11-14T08:15:57.185Z,1029.26
2016-11-14T08:17:05.883Z,1029.29
2016-11-14T08:18:14.905Z,1029.27
2016-11-14T08:19:23.599Z,1029.27
2016-11-14T08:20:32.601Z,1029.36
2016-11-14T08:21:41.638Z,1029.35
2016-11-14T08:22:51.591Z,1029.37
2016-11-14T08:24:00.904Z,1029.34
2016-11-14T08:25:09.596Z,1029.36
2016-11-14T08:26:18.323Z,1029.36
2016-11-14T08:27:27.709Z,1029.37
2016-11-14T08:28:37.322Z,1029.38
2016-11-14T08:29:46.386Z,1029.35
2016-11-14T08:30:55.382Z,1029.33
2016-11-14T08:32:04.383Z,1029.3
2016-11-14T08:33:13.246Z,1029.28
2016-11-14T08:34:22.568Z,1029.21
2016-11-14T08:35:31.611Z,1029.16
2016-11-14T08:36:40.928Z,1029.1
2016-11-14T08:37:50.246Z,1029.09
2016-11-14T08:38:59.601Z,1029.08
2016-11-14T08:40:09.216Z,1029.07
2016-11-14T08:41:17.904Z,1029.06
2016-11-14T08:42:26.635Z,1029.06
2016-11-14T08:43:35.365Z,1029.08
2016-11-14T08:44:44.705Z,1029.15
2016-11-14T08:45:53.535Z,1029.2
2016-11-14T08:47:02.589Z,1029.24
2016-11-14T08:48:12.256Z,1029.26
2016-11-14T08:49:20.966Z,1029.29
2016-11-14T08:50:29.958Z,1029.3
2016-11-14T08:51:38.655Z,1029.32
2016-11-14T08:52:47.969Z,1029.34
2016-11-14T08:53:57.008Z,1029.3
2016-11-14T08:55:06.013Z,1029.34
2016-11-14T08:56:15.192Z,1029.24
2016-11-14T08:57:24.202Z,1029.27
2016-11-14T08:58:33.547Z,1029.21
2016-11-14T08:59:42.564Z,1029.17
2016-11-14T09:00:51.593Z,1029.13
2016-11-14T09:02:01.270Z,1029.1
2016-11-14T09:03:10.614Z,1029.06
2016-11-14T09:04:19.945Z,1028.99
2016-11-14T09:05:28.635Z,1028.92
2016-11-14T09:06:37.943Z,1028.88
2016-11-14T09:07:47.248Z,1028.86
2016-11-14T09:08:55.961Z,1028.88
2016-11-14T09:10:04.979Z,1028.82
2016-11-14T09:11:13.689Z,1028.83
2016-11-14T09:12:22.527Z,1028.84
2016-11-14T09:13:31.226Z,1028.84
2016-11-14T09:14:40.243Z,1028.89
2016-11-14T09:15:49.246Z,1028.84
2016-11-14T09:16:58.860Z,1028.9
2016-11-14T09:18:07.571Z,1028.85
2016-11-14T09:19:17.131Z,1028.93
2016-11-14T09:20:26.028Z,1028.97
2016-11-14T09:21:34.752Z,1028.93
2016-11-14T09:22:43.767Z,1028.98
2016-11-14T09:23:53.134Z,1029.12
2016-11-14T09:25:02.295Z,1029.06
2016-11-14T09:26:11.299Z,1029.08
2016-11-14T09:27:20.636Z,1029.08
2016-11-14T09:28:30.266Z,1029.18
2016-11-14T09:29:39.349Z,1029.14
2016-11-14T09:30:48.714Z,1029.13
2016-11-14T09:31:57.407Z,1029.15
2016-11-14T09:33:06.434Z,1029.18
2016-11-14T09:34:15.498Z,1029.23
2016-11-14T09:35:24.522Z,1029.23
2016-11-14T09:36:33.222Z,1029.21
2016-11-14T09:37:42.227Z,1029.17
2016-11-14T09:38:51.526Z,1029.16
2016-11-14T09:40:01.141Z,1029.15
2016-11-14T09:41:10.493Z,1029.16
2016-11-14T09:42:19.506Z,1029.16
2016-11-14T09:43:28.824Z,1029.21
2016-11-14T09:44:38.138Z,1029.3
2016-11-14T09:45:47.444Z,1029.36
2016-11-14T09:46:56.132Z,1029.41
2016-11-14T09:48:05.174Z,1029.34
2016-11-14T09:49:14.176Z,1029.34
2016-11-14T09:50:23.187Z,1029.29
2016-11-14T09:51:32.222Z,1029.31
2016-11-14T09:52:41.531Z,1029.28
2016-11-14T09:53:50.616Z,1029.32
2016-11-14T09:54:59.957Z,1029.31
2016-11-14T09:56:09.312Z,1029.36
2016-11-14T09:57:18.629Z,1029.35
2016-11-14T09:58:27.982Z,1029.3
2016-11-14T09:59:36.682Z,1029.35
2016-11-14T10:00:45.734Z,1029.33
2016-11-14T10:01:54.425Z,1029.33
2016-11-14T10:03:03.420Z,1029.32
2016-11-14T10:04:12.754Z,1029.33
2016-11-14T10:05:22.070Z,1029.34
2016-11-14T10:06:30.766Z,1029.31
2016-11-14T10:07:39.800Z,1029.31
2016-11-14T10:08:49.099Z,1029.25
2016-11-14T10:09:58.747Z,1029.27
2016-11-14T10:11:08.210Z,1029.26
2016-11-14T10:12:17.346Z,1029.23
2016-11-14T10:13:26.061Z,1029.21
2016-11-14T10:14:34.751Z,1029.22
2016-11-14T10:15:43.944Z,1029.22
2016-11-14T10:16:53.316Z,1029.19
2016-11-14T10:18:02.009Z,1029.2
2016-11-14T10:19:11.035Z,1029.16
2016-11-14T10:20:19.723Z,1029.16
2016-11-14T10:21:29.057Z,1029.13
2016-11-14T10:22:38.079Z,1029.11
2016-11-14T10:23:46.768Z,1029.08
2016-11-14T10:24:55.839Z,1029.1
2016-11-14T10:26:04.857Z,1029.08
2016-11-14T10:27:13.553Z,1029.09
2016-11-14T10:28:22.581Z,1029.03
2016-11-14T10:29:31.905Z,1028.95
2016-11-14T10:30:40.623Z,1028.99
2016-11-14T10:31:49.951Z,1028.95
2016-11-14T10:32:58.959Z,1028.96
2016-11-14T10:34:07.850Z,1028.94
2016-11-14T10:35:17.169Z,1028.9
2016-11-14T10:36:26.464Z,1028.85
2016-11-14T10:37:35.151Z,1028.83
2016-11-14T10:38:44.508Z,1028.83
2016-11-14T10:39:53.253Z,1028.83
2016-11-14T10:41:02.544Z,1028.78
2016-11-14T10:42:12.168Z,1028.77
2016-11-14T10:43:21.187Z,1028.75
2016-11-14T10:44:30.268Z,1028.74
2016-11-14T10:45:39.578Z,1028.71
2016-11-14T10:46:48.582Z,1028.7
2016-11-14T10:47:57.290Z,1028.71
2016-11-14T10:49:06.297Z,1028.71
2016-11-14T10:50:15.594Z,1028.71
2016-11-14T10:51:24.980Z,1028.7
2016-11-14T10:52:33.984Z,1028.73
2016-11-14T10:53:42.686Z,1028.74
2016-11-14T10:54:51.473Z,1028.78
2016-11-14T10:56:00.191Z,1028.79
2016-11-14T10:57:09.501Z,1028.72
2016-11-14T10:58:18.810Z,1028.73
2016-11-14T10:59:28.115Z,1028.66
2016-11-14T11:00:37.416Z,1028.66
2016-11-14T11:01:46.425Z,1028.58
2016-11-14T11:02:55.769Z,1028.53
2016-11-14T11:04:05.161Z,1028.45
2016-11-14T11:05:13.852Z,1028.49
2016-11-14T11:06:23.176Z,1028.45
2016-11-14T11:07:31.919Z,1028.38
2016-11-14T11:08:41.226Z,1028.32
2016-11-14T11:09:50.010Z,1028.31
2016-11-14T11:10:59.039Z,1028.34
2016-11-14T11:12:08.366Z,1028.27
2016-11-14T11:13:17.457Z,1028.27
2016-11-14T11:14:26.214Z,1028.3
2016-11-14T11:15:34.921Z,1028.26
2016-11-14T11:16:43.917Z,1028.26
2016-11-14T11:17:53.287Z,1028.22
2016-11-14T11:19:01.992Z,1028.26
2016-11-14T11:20:10.712Z,1028.22
2016-11-14T11:21:20.444Z,1028.22
2016-11-14T11:22:29.455Z,1028.18
2016-11-14T11:23:38.773Z,1028.18
2016-11-14T11:24:47.772Z,1028.2
2016-11-14T11:25:57.094Z,1028.17
2016-11-14T11:27:06.099Z,1028.19
2016-11-14T11:28:14.830Z,1028.18
2016-11-14T11:29:24.441Z,1028.17
2016-11-14T11:30:33.824Z,1028.13
2016-11-14T11:31:42.887Z,1028.12
2016-11-14T11:32:52.228Z,1028.1
2016-11-14T11:34:01.555Z,1028.05
2016-11-14T11:35:10.902Z,1028.04
2016-11-14T11:36:19.913Z,1028.03
2016-11-14T11:37:29.544Z,1028.05
2016-11-14T11:38:38.852Z,1028.05
2016-11-14T11:39:47.553Z,1027.99
2016-11-14T11:40:56.560Z,1028.03
2016-11-14T11:42:05.278Z,1028.07
2016-11-14T11:43:14.898Z,1028.06
2016-11-14T11:44:24.566Z,1028.11
2016-11-14T11:45:33.667Z,1028.1
2016-11-14T11:46:42.380Z,1028.11
2016-11-14T11:47:51.474Z,1028.13
2016-11-14T11:49:00.839Z,1028.11
2016-11-14T11:50:09.568Z,1028.13
2016-11-14T11:51:18.915Z,1028.09
2016-11-14T11:52:27.954Z,1028.09
2016-11-14T11:53:37.319Z,1028.1
2016-11-14T11:54:46.509Z,1028.08
2016-11-14T11:55:55.862Z,1028.1
2016-11-14T11:57:05.483Z,1028.12
2016-11-14T11:58:14.604Z,1028.08
2016-11-14T11:59:23.626Z,1028.07
2016-11-14T12:00:32.431Z,1028.07
2016-11-14T12:01:42.052Z,1028.04
2016-11-14T12:02:51.397Z,1027.99
2016-11-14T12:04:00.091Z,1028.02
2016-11-14T12:05:09.105Z,1027.96
2016-11-14T12:06:18.543Z,1028.01
2016-11-14T12:07:27.260Z,1028
2016-11-14T12:08:36.262Z,1027.98
2016-11-14T12:09:45.306Z,1027.97
2016-11-14T12:10:54.314Z,1027.99
2016-11-14T12:12:04.264Z,1027.96
2016-11-14T12:13:13.581Z,1027.97
2016-11-14T12:14:22.880Z,1027.97
2016-11-14T12:15:31.918Z,1027.93
2016-11-14T12:16:41.565Z,1027.86
2016-11-14T12:17:50.957Z,1027.82
2016-11-14T12:18:59.701Z,1027.8
2016-11-14T12:20:08.783Z,1027.76
2016-11-14T12:21:18.365Z,1027.79
2016-11-14T12:22:27.395Z,1027.74
2016-11-14T12:23:36.923Z,1027.74
2016-11-14T12:24:45.939Z,1027.7
2016-11-14T12:25:54.955Z,1027.72
2016-11-14T12:27:04.596Z,1027.64
2016-11-14T12:28:13.728Z,1027.6
2016-11-14T12:29:22.953Z,1027.59
2016-11-14T12:30:31.680Z,1027.57
2016-11-14T12:31:40.725Z,1027.57
2016-11-14T12:32:49.835Z,1027.58
2016-11-14T12:33:58.883Z,1027.59
2016-11-14T12:35:08.880Z,1027.56
2016-11-14T12:36:17.604Z,1027.5
2016-11-14T12:37:26.348Z,1027.51
2016-11-14T12:38:35.445Z,1027.56
2016-11-14T12:39:45.144Z,1027.52
2016-11-14T12:40:54.500Z,1027.51
2016-11-14T12:42:03.518Z,1027.5
2016-11-14T12:43:12.862Z,1027.4
2016-11-14T12:44:21.596Z,1027.37
2016-11-14T12:45:30.610Z,1027.32
2016-11-14T12:46:39.613Z,1027.33
2016-11-14T12:47:48.949Z,1027.28
2016-11-14T12:48:58.322Z,1027.29
2016-11-14T12:50:07.334Z,1027.26
2016-11-14T12:51:16.404Z,1027.24
2016-11-14T12:52:25.431Z,1027.26
2016-11-14T12:53:34.490Z,1027.26
2016-11-14T12:54:43.499Z,1027.23
2016-11-14T12:55:52.242Z,1027.28
2016-11-14T12:57:01.255Z,1027.3
2016-11-14T12:58:10.447Z,1027.35
2016-11-14T12:59:19.161Z,1027.31
2016-11-14T13:00:28.477Z,1027.31
2016-11-14T13:01:37.168Z,1027.28
2016-11-14T13:02:45.937Z,1027.28
2016-11-14T13:03:55.111Z,1027.29
2016-11-14T13:05:04.446Z,1027.27
2016-11-14T13:06:13.162Z,1027.27
2016-11-14T13:07:22.515Z,1027.29
2016-11-14T13:08:31.283Z,1027.28
2016-11-14T13:09:40.335Z,1027.23
2016-11-14T13:10:49.065Z,1027.22
2016-11-14T13:11:58.126Z,1027.17
2016-11-14T13:13:39.228Z,1027.17
2016-11-14T13:14:48.243Z,1027.16
2016-11-14T13:15:57.273Z,1027.14
2016-11-14T13:17:06.295Z,1027.1
2016-11-14T13:18:15.194Z,1027.09
2016-11-14T13:19:24.243Z,1027.04
2016-11-14T13:20:32.986Z,1027.03
2016-11-14T13:21:41.716Z,1027.03
2016-11-14T13:22:51.096Z,1027.08
2016-11-14T13:24:00.417Z,1027.05
2016-11-14T13:25:09.454Z,1027.01
2016-11-14T13:26:18.473Z,1026.97
2016-11-14T13:27:27.477Z,1026.97
2016-11-14T13:28:36.469Z,1026.91
2016-11-14T13:29:45.493Z,1026.93
2016-11-14T13:30:54.830Z,1026.92
2016-11-14T13:32:03.830Z,1026.93
2016-11-14T13:33:12.530Z,1027.02
2016-11-14T13:34:21.542Z,1026.98
2016-11-14T13:35:30.553Z,1027.08
2016-11-14T13:36:39.312Z,1027.03
2016-11-14T13:37:48.674Z,1027.04
2016-11-14T13:38:57.833Z,1027.01
2016-11-14T13:40:06.834Z,1027.03
2016-11-14T13:41:16.146Z,1027.01
2016-11-14T13:42:25.150Z,1026.99
2016-11-14T13:43:34.165Z,1026.96
2016-11-14T13:44:43.481Z,1026.99
2016-11-14T13:45:52.207Z,1026.96
2016-11-14T13:47:01.655Z,1026.92
2016-11-14T13:48:10.740Z,1026.94
2016-11-14T13:49:20.487Z,1026.89
2016-11-14T13:50:29.503Z,1026.86
2016-11-14T13:51:38.190Z,1026.89
2016-11-14T13:52:46.923Z,1026.89
2016-11-14T13:53:56.248Z,1026.83
2016-11-14T13:55:05.257Z,1026.85
2016-11-14T13:56:13.958Z,1026.85
2016-11-14T13:57:23.288Z,1026.87
2016-11-14T13:58:32.643Z,1026.86
2016-11-14T13:59:42.037Z,1026.84